sensor_id;sensor_type;location;lat;lon;timestamp;P1;durP1;ratioP1;P2;durP2;ratioP2
18140;SDS011;9196;49.194;12.526;2022-12-24T00:00:56;0.80;;;0.80;;
18140;SDS011;9196;49.194;12.526;2022-12-24T00:03:23;1.27;;;0.90;;
18140;SDS011;9196;49.194;12.526;2022-12-24T00:05:50;1.47;;;0.80;;
18140;SDS011;9196;49.194;12.526;2022-12-24T00:08:17;1.23;;;1.23;;
18140;SDS011;9196;49.194;12.526;2022-12-24T00:10:43;3.67;;;0.87;;
18140;SDS011;9196;49.194;12.526;2022-12-24T00:13:15;1.13;;;1.03;;
18140;SDS011;9196;49.194;12.526;2022-12-24T00:15:42;2.20;;;0.80;;
18140;SDS011;9196;49.194;12.526;2022-12-24T00:18:09;2.53;;;1.20;;
18140;SDS011;9196;49.194;12.526;2022-12-24T00:20:36;2.20;;;1.10;;
18140;SDS011;9196;49.194;12.526;2022-12-24T00:23:02;2.50;;;1.20;;
18140;SDS011;9196;49.194;12.526;2022-12-24T00:25:29;3.77;;;1.30;;
18140;SDS011;9196;49.194;12.526;2022-12-24T00:27:56;0.90;;;0.90;;
18140;SDS011;9196;49.194;12.526;2022-12-24T00:30:24;1.73;;;1.43;;
18140;SDS011;9196;49.194;12.526;2022-12-24T00:32:51;2.93;;;1.10;;
18140;SDS011;9196;49.194;12.526;2022-12-24T00:35:17;7.67;;;1.50;;
18140;SDS011;9196;49.194;12.526;2022-12-24T00:37:45;0.83;;;0.80;;
18140;SDS011;9196;49.194;12.526;2022-12-24T00:40:12;3.13;;;1.45;;
18140;SDS011;9196;49.194;12.526;2022-12-24T00:42:39;1.80;;;1.10;;
18140;SDS011;9196;49.194;12.526;2022-12-24T00:45:06;2.97;;;1.30;;
18140;SDS011;9196;49.194;12.526;2022-12-24T00:47:36;3.90;;;2.13;;
18140;SDS011;9196;49.194;12.526;2022-12-24T00:50:03;3.03;;;1.10;;
18140;SDS011;9196;49.194;12.526;2022-12-24T00:52:31;2.47;;;1.53;;
18140;SDS011;9196;49.194;12.526;2022-12-24T00:54:58;6.67;;;1.63;;
18140;SDS011;9196;49.194;12.526;2022-12-24T00:57:25;2.80;;;1.20;;
18140;SDS011;9196;49.194;12.526;2022-12-24T00:59:52;5.03;;;1.63;;
18140;SDS011;9196;49.194;12.526;2022-12-24T01:02:19;4.80;;;1.57;;
18140;SDS011;9196;49.194;12.526;2022-12-24T01:04:47;6.73;;;2.00;;
18140;SDS011;9196;49.194;12.526;2022-12-24T01:07:32;3.23;;;1.33;;
18140;SDS011;9196;49.194;12.526;2022-12-24T01:09:59;5.13;;;1.60;;
18140;SDS011;9196;49.194;12.526;2022-12-24T01:12:26;4.37;;;1.23;;
18140;SDS011;9196;49.194;12.526;2022-12-24T01:14:53;4.60;;;1.60;;
18140;SDS011;9196;49.194;12.526;2022-12-24T01:17:20;5.03;;;1.40;;
18140;SDS011;9196;49.194;12.526;2022-12-24T01:19:49;7.43;;;2.10;;
18140;SDS011;9196;49.194;12.526;2022-12-24T01:22:16;5.90;;;2.47;;
18140;SDS011;9196;49.194;12.526;2022-12-24T01:24:42;4.57;;;1.47;;
18140;SDS011;9196;49.194;12.526;2022-12-24T01:27:09;1.90;;;1.60;;
18140;SDS011;9196;49.194;12.526;2022-12-24T01:29:36;9.60;;;2.70;;
18140;SDS011;9196;49.194;12.526;2022-12-24T01:32:03;6.53;;;1.50;;
18140;SDS011;9196;49.194;12.526;2022-12-24T01:34:30;2.90;;;1.30;;
18140;SDS011;9196;49.194;12.526;2022-12-24T01:36:58;2.60;;;1.30;;
18140;SDS011;9196;49.194;12.526;2022-12-24T01:39:25;11.80;;;2.40;;
18140;SDS011;9196;49.194;12.526;2022-12-24T01:41:51;6.87;;;2.03;;
18140;SDS011;9196;49.194;12.526;2022-12-24T01:44:39;2.97;;;1.30;;
18140;SDS011;9196;49.194;12.526;2022-12-24T01:47:07;3.90;;;1.40;;
18140;SDS011;9196;49.194;12.526;2022-12-24T01:49:37;4.87;;;1.83;;
18140;SDS011;9196;49.194;12.526;2022-12-24T01:52:09;5.07;;;1.97;;
18140;SDS011;9196;49.194;12.526;2022-12-24T01:54:40;1.30;;;1.23;;
18140;SDS011;9196;49.194;12.526;2022-12-24T01:57:10;2.73;;;1.70;;
18140;SDS011;9196;49.194;12.526;2022-12-24T01:59:41;7.50;;;2.40;;
18140;SDS011;9196;49.194;12.526;2022-12-24T02:02:10;7.97;;;2.80;;
18140;SDS011;9196;49.194;12.526;2022-12-24T02:04:39;5.07;;;1.95;;
18140;SDS011;9196;49.194;12.526;2022-12-24T02:07:12;7.45;;;1.60;;
18140;SDS011;9196;49.194;12.526;2022-12-24T02:09:39;3.80;;;1.67;;
18140;SDS011;9196;49.194;12.526;2022-12-24T02:12:06;3.87;;;1.83;;
18140;SDS011;9196;49.194;12.526;2022-12-24T02:14:34;4.00;;;1.60;;
18140;SDS011;9196;49.194;12.526;2022-12-24T02:17:04;7.70;;;2.13;;
18140;SDS011;9196;49.194;12.526;2022-12-24T02:22:55;8.23;;;2.20;;
18140;SDS011;9196;49.194;12.526;2022-12-24T02:25:43;3.27;;;1.70;;
18140;SDS011;9196;49.194;12.526;2022-12-24T02:28:32;4.33;;;2.10;;
18140;SDS011;9196;49.194;12.526;2022-12-24T02:31:11;3.87;;;1.50;;
18140;SDS011;9196;49.194;12.526;2022-12-24T02:33:42;8.98;;;1.85;;
18140;SDS011;9196;49.194;12.526;2022-12-24T02:36:15;3.43;;;1.57;;
18140;SDS011;9196;49.194;12.526;2022-12-24T02:38:49;7.77;;;2.20;;
18140;SDS011;9196;49.194;12.526;2022-12-24T02:41:24;5.17;;;2.07;;
18140;SDS011;9196;49.194;12.526;2022-12-24T02:44:16;6.73;;;1.83;;
18140;SDS011;9196;49.194;12.526;2022-12-24T02:46:45;8.27;;;1.48;;
18140;SDS011;9196;49.194;12.526;2022-12-24T02:49:13;2.72;;;1.35;;
18140;SDS011;9196;49.194;12.526;2022-12-24T02:51:40;6.28;;;1.80;;
18140;SDS011;9196;49.194;12.526;2022-12-24T02:54:07;6.38;;;1.92;;
18140;SDS011;9196;49.194;12.526;2022-12-24T02:56:49;4.60;;;1.80;;
18140;SDS011;9196;49.194;12.526;2022-12-24T02:59:32;9.25;;;2.72;;
18140;SDS011;9196;49.194;12.526;2022-12-24T03:02:11;5.50;;;1.70;;
18140;SDS011;9196;49.194;12.526;2022-12-24T03:04:46;3.60;;;1.30;;
18140;SDS011;9196;49.194;12.526;2022-12-24T03:07:20;7.77;;;2.70;;
18140;SDS011;9196;49.194;12.526;2022-12-24T03:09:55;4.67;;;2.30;;
18140;SDS011;9196;49.194;12.526;2022-12-24T03:12:29;7.68;;;2.30;;
18140;SDS011;9196;49.194;12.526;2022-12-24T03:15:00;3.50;;;1.90;;
18140;SDS011;9196;49.194;12.526;2022-12-24T03:17:30;5.13;;;1.88;;
18140;SDS011;9196;49.194;12.526;2022-12-24T03:20:02;22.83;;;2.30;;
18140;SDS011;9196;49.194;12.526;2022-12-24T03:22:31;3.65;;;1.35;;
18140;SDS011;9196;49.194;12.526;2022-12-24T03:24:59;5.18;;;1.30;;
18140;SDS011;9196;49.194;12.526;2022-12-24T03:27:26;7.93;;;2.03;;
18140;SDS011;9196;49.194;12.526;2022-12-24T03:29:55;2.97;;;1.73;;
18140;SDS011;9196;49.194;12.526;2022-12-24T03:32:23;4.97;;;1.67;;
18140;SDS011;9196;49.194;12.526;2022-12-24T03:34:54;5.60;;;2.55;;
18140;SDS011;9196;49.194;12.526;2022-12-24T03:37:21;3.33;;;1.60;;
18140;SDS011;9196;49.194;12.526;2022-12-24T03:39:48;4.97;;;2.00;;
18140;SDS011;9196;49.194;12.526;2022-12-24T03:42:15;5.37;;;1.47;;
18140;SDS011;9196;49.194;12.526;2022-12-24T03:44:42;3.50;;;1.33;;
18140;SDS011;9196;49.194;12.526;2022-12-24T03:47:09;5.50;;;1.73;;
18140;SDS011;9196;49.194;12.526;2022-12-24T03:49:36;2.47;;;1.15;;
18140;SDS011;9196;49.194;12.526;2022-12-24T03:52:05;4.07;;;1.45;;
18140;SDS011;9196;49.194;12.526;2022-12-24T03:54:32;11.63;;;2.40;;
18140;SDS011;9196;49.194;12.526;2022-12-24T03:56:59;8.95;;;1.77;;
18140;SDS011;9196;49.194;12.526;2022-12-24T03:59:25;7.18;;;1.90;;
18140;SDS011;9196;49.194;12.526;2022-12-24T04:01:52;2.60;;;1.40;;
18140;SDS011;9196;49.194;12.526;2022-12-24T04:04:19;6.78;;;1.90;;
18140;SDS011;9196;49.194;12.526;2022-12-24T04:06:46;3.60;;;2.17;;
18140;SDS011;9196;49.194;12.526;2022-12-24T04:09:15;4.57;;;1.55;;
18140;SDS011;9196;49.194;12.526;2022-12-24T04:11:42;5.55;;;1.63;;
18140;SDS011;9196;49.194;12.526;2022-12-24T04:14:08;4.30;;;2.20;;
18140;SDS011;9196;49.194;12.526;2022-12-24T04:16:35;5.50;;;1.63;;
18140;SDS011;9196;49.194;12.526;2022-12-24T04:19:02;9.73;;;2.40;;
18140;SDS011;9196;49.194;12.526;2022-12-24T04:21:29;5.30;;;2.00;;
18140;SDS011;9196;49.194;12.526;2022-12-24T04:23:56;7.20;;;1.97;;
18140;SDS011;9196;49.194;12.526;2022-12-24T04:26:24;9.63;;;2.60;;
18140;SDS011;9196;49.194;12.526;2022-12-24T04:28:51;12.20;;;2.07;;
18140;SDS011;9196;49.194;12.526;2022-12-24T04:31:18;4.00;;;1.30;;
18140;SDS011;9196;49.194;12.526;2022-12-24T04:33:45;5.63;;;2.10;;
18140;SDS011;9196;49.194;12.526;2022-12-24T04:36:13;2.97;;;1.70;;
18140;SDS011;9196;49.194;12.526;2022-12-24T04:38:42;9.15;;;2.17;;
18140;SDS011;9196;49.194;12.526;2022-12-24T04:41:09;6.40;;;2.72;;
18140;SDS011;9196;49.194;12.526;2022-12-24T04:43:39;4.93;;;1.70;;
18140;SDS011;9196;49.194;12.526;2022-12-24T04:46:07;5.30;;;1.70;;
18140;SDS011;9196;49.194;12.526;2022-12-24T04:48:35;6.20;;;1.50;;
18140;SDS011;9196;49.194;12.526;2022-12-24T04:51:02;14.60;;;2.37;;
18140;SDS011;9196;49.194;12.526;2022-12-24T04:53:31;7.27;;;1.93;;
18140;SDS011;9196;49.194;12.526;2022-12-24T04:55:58;10.93;;;2.60;;
18140;SDS011;9196;49.194;12.526;2022-12-24T04:58:25;3.80;;;2.70;;
18140;SDS011;9196;49.194;12.526;2022-12-24T05:00:54;7.63;;;2.03;;
18140;SDS011;9196;49.194;12.526;2022-12-24T05:03:21;7.83;;;1.87;;
18140;SDS011;9196;49.194;12.526;2022-12-24T05:05:48;6.30;;;1.80;;
18140;SDS011;9196;49.194;12.526;2022-12-24T05:08:14;2.92;;;1.77;;
18140;SDS011;9196;49.194;12.526;2022-12-24T05:10:41;7.90;;;2.10;;
18140;SDS011;9196;49.194;12.526;2022-12-24T05:13:08;5.47;;;1.73;;
18140;SDS011;9196;49.194;12.526;2022-12-24T05:15:35;7.97;;;1.77;;
18140;SDS011;9196;49.194;12.526;2022-12-24T05:18:03;4.13;;;1.90;;
18140;SDS011;9196;49.194;12.526;2022-12-24T05:20:30;4.40;;;2.10;;
18140;SDS011;9196;49.194;12.526;2022-12-24T05:22:57;7.83;;;1.70;;
18140;SDS011;9196;49.194;12.526;2022-12-24T05:25:41;8.93;;;2.08;;
18140;SDS011;9196;49.194;12.526;2022-12-24T05:28:25;8.50;;;1.83;;
18140;SDS011;9196;49.194;12.526;2022-12-24T05:30:52;10.63;;;2.15;;
18140;SDS011;9196;49.194;12.526;2022-12-24T05:33:20;5.95;;;1.90;;
18140;SDS011;9196;49.194;12.526;2022-12-24T05:35:47;3.72;;;1.83;;
18140;SDS011;9196;49.194;12.526;2022-12-24T05:38:16;5.30;;;1.67;;
18140;SDS011;9196;49.194;12.526;2022-12-24T05:40:43;4.47;;;1.85;;
18140;SDS011;9196;49.194;12.526;2022-12-24T05:43:10;5.90;;;2.10;;
18140;SDS011;9196;49.194;12.526;2022-12-24T05:45:37;3.45;;;1.60;;
18140;SDS011;9196;49.194;12.526;2022-12-24T05:48:03;4.80;;;2.00;;
18140;SDS011;9196;49.194;12.526;2022-12-24T05:50:33;1.80;;;1.70;;
18140;SDS011;9196;49.194;12.526;2022-12-24T05:53:00;7.53;;;2.05;;
18140;SDS011;9196;49.194;12.526;2022-12-24T05:55:27;7.95;;;2.45;;
18140;SDS011;9196;49.194;12.526;2022-12-24T05:57:53;3.95;;;1.98;;
18140;SDS011;9196;49.194;12.526;2022-12-24T06:00:20;9.68;;;2.22;;
18140;SDS011;9196;49.194;12.526;2022-12-24T06:02:47;5.72;;;1.60;;
18140;SDS011;9196;49.194;12.526;2022-12-24T06:05:14;7.03;;;1.45;;
18140;SDS011;9196;49.194;12.526;2022-12-24T06:07:43;4.72;;;1.65;;
18140;SDS011;9196;49.194;12.526;2022-12-24T06:10:10;6.37;;;2.50;;
18140;SDS011;9196;49.194;12.526;2022-12-24T06:12:36;5.68;;;2.28;;
18140;SDS011;9196;49.194;12.526;2022-12-24T06:15:04;6.17;;;1.90;;
18140;SDS011;9196;49.194;12.526;2022-12-24T06:17:31;4.78;;;1.77;;
18140;SDS011;9196;49.194;12.526;2022-12-24T06:19:58;12.55;;;3.05;;
18140;SDS011;9196;49.194;12.526;2022-12-24T06:22:25;7.23;;;2.10;;
18140;SDS011;9196;49.194;12.526;2022-12-24T06:24:53;7.13;;;3.15;;
18140;SDS011;9196;49.194;12.526;2022-12-24T06:27:20;7.47;;;2.15;;
18140;SDS011;9196;49.194;12.526;2022-12-24T06:29:46;6.50;;;2.37;;
18140;SDS011;9196;49.194;12.526;2022-12-24T06:32:13;5.60;;;2.17;;
18140;SDS011;9196;49.194;12.526;2022-12-24T06:34:40;4.95;;;2.10;;
18140;SDS011;9196;49.194;12.526;2022-12-24T06:37:07;3.13;;;2.13;;
18140;SDS011;9196;49.194;12.526;2022-12-24T06:39:42;7.88;;;2.17;;
18140;SDS011;9196;49.194;12.526;2022-12-24T06:42:11;6.60;;;2.70;;
18140;SDS011;9196;49.194;12.526;2022-12-24T06:44:38;4.90;;;1.90;;
18140;SDS011;9196;49.194;12.526;2022-12-24T06:47:05;6.40;;;2.15;;
18140;SDS011;9196;49.194;12.526;2022-12-24T06:49:32;3.55;;;1.80;;
18140;SDS011;9196;49.194;12.526;2022-12-24T06:51:58;8.10;;;2.20;;
18140;SDS011;9196;49.194;12.526;2022-12-24T06:54:25;13.18;;;2.90;;
18140;SDS011;9196;49.194;12.526;2022-12-24T06:56:52;4.13;;;1.80;;
18140;SDS011;9196;49.194;12.526;2022-12-24T06:59:20;8.43;;;3.50;;
18140;SDS011;9196;49.194;12.526;2022-12-24T07:01:47;4.77;;;2.03;;
18140;SDS011;9196;49.194;12.526;2022-12-24T07:04:14;4.60;;;2.00;;
18140;SDS011;9196;49.194;12.526;2022-12-24T07:06:41;6.90;;;2.58;;
18140;SDS011;9196;49.194;12.526;2022-12-24T07:09:08;6.22;;;2.10;;
18140;SDS011;9196;49.194;12.526;2022-12-24T07:11:37;5.10;;;2.45;;
18140;SDS011;9196;49.194;12.526;2022-12-24T07:14:04;8.88;;;3.25;;
18140;SDS011;9196;49.194;12.526;2022-12-24T07:16:32;5.47;;;2.00;;
18140;SDS011;9196;49.194;12.526;2022-12-24T07:18:59;6.50;;;2.90;;
18140;SDS011;9196;49.194;12.526;2022-12-24T07:21:26;10.15;;;2.60;;
18140;SDS011;9196;49.194;12.526;2022-12-24T07:23:53;5.95;;;2.38;;
18140;SDS011;9196;49.194;12.526;2022-12-24T07:26:19;5.30;;;2.00;;
18140;SDS011;9196;49.194;12.526;2022-12-24T07:28:46;7.40;;;2.42;;
18140;SDS011;9196;49.194;12.526;2022-12-24T07:31:13;12.10;;;3.40;;
18140;SDS011;9196;49.194;12.526;2022-12-24T07:33:42;9.68;;;2.03;;
18140;SDS011;9196;49.194;12.526;2022-12-24T07:36:09;6.22;;;2.30;;
18140;SDS011;9196;49.194;12.526;2022-12-24T07:38:42;11.20;;;2.90;;
18140;SDS011;9196;49.194;12.526;2022-12-24T07:41:09;9.13;;;2.75;;
18140;SDS011;9196;49.194;12.526;2022-12-24T07:43:36;3.80;;;2.47;;
18140;SDS011;9196;49.194;12.526;2022-12-24T07:46:03;6.22;;;2.75;;
18140;SDS011;9196;49.194;12.526;2022-12-24T07:48:30;6.30;;;1.92;;
18140;SDS011;9196;49.194;12.526;2022-12-24T07:50:59;4.68;;;1.75;;
18140;SDS011;9196;49.194;12.526;2022-12-24T07:53:26;6.25;;;2.05;;
18140;SDS011;9196;49.194;12.526;2022-12-24T07:55:54;6.68;;;2.13;;
18140;SDS011;9196;49.194;12.526;2022-12-24T07:58:21;9.95;;;2.15;;
18140;SDS011;9196;49.194;12.526;2022-12-24T08:00:48;4.90;;;2.05;;
18140;SDS011;9196;49.194;12.526;2022-12-24T08:03:21;5.10;;;3.37;;
18140;SDS011;9196;49.194;12.526;2022-12-24T08:05:47;5.80;;;2.28;;
18140;SDS011;9196;49.194;12.526;2022-12-24T08:08:17;10.47;;;4.07;;
18140;SDS011;9196;49.194;12.526;2022-12-24T08:10:44;7.93;;;2.63;;
18140;SDS011;9196;49.194;12.526;2022-12-24T08:13:11;7.90;;;2.88;;
18140;SDS011;9196;49.194;12.526;2022-12-24T08:15:38;6.77;;;2.43;;
18140;SDS011;9196;49.194;12.526;2022-12-24T08:18:05;6.77;;;2.33;;
18140;SDS011;9196;49.194;12.526;2022-12-24T08:20:32;4.57;;;2.67;;
18140;SDS011;9196;49.194;12.526;2022-12-24T08:22:58;10.93;;;2.15;;
18140;SDS011;9196;49.194;12.526;2022-12-24T08:25:27;11.13;;;2.90;;
18140;SDS011;9196;49.194;12.526;2022-12-24T08:27:53;12.13;;;3.37;;
18140;SDS011;9196;49.194;12.526;2022-12-24T08:30:20;7.32;;;2.40;;
18140;SDS011;9196;49.194;12.526;2022-12-24T08:32:47;15.32;;;3.10;;
18140;SDS011;9196;49.194;12.526;2022-12-24T08:35:14;5.43;;;2.17;;
18140;SDS011;9196;49.194;12.526;2022-12-24T08:37:41;4.57;;;2.00;;
18140;SDS011;9196;49.194;12.526;2022-12-24T08:40:08;7.00;;;2.97;;
18140;SDS011;9196;49.194;12.526;2022-12-24T08:42:37;8.68;;;3.25;;
18140;SDS011;9196;49.194;12.526;2022-12-24T08:45:04;16.37;;;4.57;;
18140;SDS011;9196;49.194;12.526;2022-12-24T08:47:32;15.85;;;7.25;;
18140;SDS011;9196;49.194;12.526;2022-12-24T08:49:59;25.63;;;8.63;;
18140;SDS011;9196;49.194;12.526;2022-12-24T08:52:26;22.10;;;11.07;;
18140;SDS011;9196;49.194;12.526;2022-12-24T08:54:52;16.87;;;5.40;;
18140;SDS011;9196;49.194;12.526;2022-12-24T08:57:19;10.23;;;3.20;;
18140;SDS011;9196;49.194;12.526;2022-12-24T08:59:48;12.53;;;4.00;;
18140;SDS011;9196;49.194;12.526;2022-12-24T09:02:15;11.00;;;3.45;;
18140;SDS011;9196;49.194;12.526;2022-12-24T09:04:41;10.25;;;2.88;;
18140;SDS011;9196;49.194;12.526;2022-12-24T09:07:08;14.57;;;3.50;;
18140;SDS011;9196;49.194;12.526;2022-12-24T09:09:35;10.07;;;2.70;;
18140;SDS011;9196;49.194;12.526;2022-12-24T09:12:03;6.90;;;2.40;;
18140;SDS011;9196;49.194;12.526;2022-12-24T09:14:31;9.30;;;3.17;;
18140;SDS011;9196;49.194;12.526;2022-12-24T09:16:59;10.67;;;2.83;;
18140;SDS011;9196;49.194;12.526;2022-12-24T09:19:26;4.65;;;2.65;;
18140;SDS011;9196;49.194;12.526;2022-12-24T09:21:53;8.00;;;2.57;;
18140;SDS011;9196;49.194;12.526;2022-12-24T09:24:20;7.45;;;2.67;;
18140;SDS011;9196;49.194;12.526;2022-12-24T09:26:47;10.60;;;3.53;;
18140;SDS011;9196;49.194;12.526;2022-12-24T09:29:14;6.43;;;3.60;;
18140;SDS011;9196;49.194;12.526;2022-12-24T09:31:41;7.90;;;3.15;;
18140;SDS011;9196;49.194;12.526;2022-12-24T09:34:09;12.37;;;3.73;;
18140;SDS011;9196;49.194;12.526;2022-12-24T09:36:36;12.82;;;3.70;;
18140;SDS011;9196;49.194;12.526;2022-12-24T09:39:03;5.20;;;2.60;;
18140;SDS011;9196;49.194;12.526;2022-12-24T09:41:32;8.40;;;2.87;;
18140;SDS011;9196;49.194;12.526;2022-12-24T09:44:11;11.10;;;3.40;;
18140;SDS011;9196;49.194;12.526;2022-12-24T09:46:46;8.73;;;2.50;;
18140;SDS011;9196;49.194;12.526;2022-12-24T09:49:17;10.63;;;3.43;;
18140;SDS011;9196;49.194;12.526;2022-12-24T09:51:48;9.83;;;3.77;;
18140;SDS011;9196;49.194;12.526;2022-12-24T09:54:19;11.77;;;3.27;;
18140;SDS011;9196;49.194;12.526;2022-12-24T09:56:50;7.55;;;2.88;;
18140;SDS011;9196;49.194;12.526;2022-12-24T09:59:19;11.82;;;3.00;;
18140;SDS011;9196;49.194;12.526;2022-12-24T10:01:48;10.50;;;2.88;;
18140;SDS011;9196;49.194;12.526;2022-12-24T10:04:19;8.25;;;2.33;;
18140;SDS011;9196;49.194;12.526;2022-12-24T10:06:48;7.25;;;2.45;;
18140;SDS011;9196;49.194;12.526;2022-12-24T10:09:21;9.77;;;3.03;;
18140;SDS011;9196;49.194;12.526;2022-12-24T10:11:53;16.15;;;2.40;;
18140;SDS011;9196;49.194;12.526;2022-12-24T10:14:33;16.92;;;3.17;;
18140;SDS011;9196;49.194;12.526;2022-12-24T10:17:21;16.03;;;3.80;;
18140;SDS011;9196;49.194;12.526;2022-12-24T10:19:58;12.87;;;2.73;;
18140;SDS011;9196;49.194;12.526;2022-12-24T10:22:45;7.43;;;2.50;;
18140;SDS011;9196;49.194;12.526;2022-12-24T10:25:20;7.80;;;2.67;;
18140;SDS011;9196;49.194;12.526;2022-12-24T10:27:50;12.95;;;3.53;;
18140;SDS011;9196;49.194;12.526;2022-12-24T10:30:20;12.87;;;3.67;;
18140;SDS011;9196;49.194;12.526;2022-12-24T10:32:48;11.20;;;3.03;;
18140;SDS011;9196;49.194;12.526;2022-12-24T10:35:19;8.43;;;2.93;;
18140;SDS011;9196;49.194;12.526;2022-12-24T10:37:49;24.13;;;3.83;;
18140;SDS011;9196;49.194;12.526;2022-12-24T10:40:23;9.83;;;3.00;;
18140;SDS011;9196;49.194;12.526;2022-12-24T10:42:55;10.50;;;2.97;;
18140;SDS011;9196;49.194;12.526;2022-12-24T10:45:22;10.30;;;3.13;;
18140;SDS011;9196;49.194;12.526;2022-12-24T10:47:53;11.90;;;3.03;;
18140;SDS011;9196;49.194;12.526;2022-12-24T10:50:27;8.53;;;4.40;;
18140;SDS011;9196;49.194;12.526;2022-12-24T10:52:59;6.93;;;2.10;;
18140;SDS011;9196;49.194;12.526;2022-12-24T10:55:32;9.80;;;3.00;;
18140;SDS011;9196;49.194;12.526;2022-12-24T10:58:00;9.90;;;2.90;;
18140;SDS011;9196;49.194;12.526;2022-12-24T11:00:29;20.63;;;3.13;;
18140;SDS011;9196;49.194;12.526;2022-12-24T11:03:05;9.90;;;2.93;;
18140;SDS011;9196;49.194;12.526;2022-12-24T11:05:35;8.30;;;3.42;;
18140;SDS011;9196;49.194;12.526;2022-12-24T11:08:03;15.27;;;4.30;;
18140;SDS011;9196;49.194;12.526;2022-12-24T11:10:32;8.70;;;3.20;;
18140;SDS011;9196;49.194;12.526;2022-12-24T11:13:02;15.87;;;3.27;;
18140;SDS011;9196;49.194;12.526;2022-12-24T11:15:29;11.07;;;4.03;;
18140;SDS011;9196;49.194;12.526;2022-12-24T11:17:59;16.53;;;3.53;;
18140;SDS011;9196;49.194;12.526;2022-12-24T11:20:29;7.82;;;2.95;;
18140;SDS011;9196;49.194;12.526;2022-12-24T11:22:59;11.43;;;3.13;;
18140;SDS011;9196;49.194;12.526;2022-12-24T11:25:27;7.57;;;2.70;;
18140;SDS011;9196;49.194;12.526;2022-12-24T11:27:56;12.87;;;3.17;;
18140;SDS011;9196;49.194;12.526;2022-12-24T11:30:36;12.50;;;2.60;;
18140;SDS011;9196;49.194;12.526;2022-12-24T11:35:52;9.27;;;3.03;;
18140;SDS011;9196;49.194;12.526;2022-12-24T11:38:24;14.83;;;3.57;;
18140;SDS011;9196;49.194;12.526;2022-12-24T11:40:56;9.37;;;3.37;;
18140;SDS011;9196;49.194;12.526;2022-12-24T11:43:33;11.73;;;3.83;;
18140;SDS011;9196;49.194;12.526;2022-12-24T11:46:13;14.83;;;2.80;;
18140;SDS011;9196;49.194;12.526;2022-12-24T11:48:42;10.07;;;3.20;;
18140;SDS011;9196;49.194;12.526;2022-12-24T11:51:18;15.30;;;3.23;;
18140;SDS011;9196;49.194;12.526;2022-12-24T11:53:49;8.37;;;2.47;;
18140;SDS011;9196;49.194;12.526;2022-12-24T11:56:27;17.70;;;2.90;;
18140;SDS011;9196;49.194;12.526;2022-12-24T11:58:58;12.70;;;2.50;;
18140;SDS011;9196;49.194;12.526;2022-12-24T12:01:32;12.13;;;2.80;;
18140;SDS011;9196;49.194;12.526;2022-12-24T12:04:04;8.70;;;3.37;;
18140;SDS011;9196;49.194;12.526;2022-12-24T12:06:37;10.60;;;3.13;;
18140;SDS011;9196;49.194;12.526;2022-12-24T12:09:11;11.23;;;3.20;;
18140;SDS011;9196;49.194;12.526;2022-12-24T12:11:40;9.43;;;2.60;;
18140;SDS011;9196;49.194;12.526;2022-12-24T12:14:09;11.83;;;2.60;;
18140;SDS011;9196;49.194;12.526;2022-12-24T12:16:44;8.97;;;3.00;;
18140;SDS011;9196;49.194;12.526;2022-12-24T12:19:29;16.77;;;3.67;;
18140;SDS011;9196;49.194;12.526;2022-12-24T12:22:01;12.20;;;2.90;;
18140;SDS011;9196;49.194;12.526;2022-12-24T12:24:35;7.07;;;3.20;;
18140;SDS011;9196;49.194;12.526;2022-12-24T12:27:06;8.20;;;2.50;;
18140;SDS011;9196;49.194;12.526;2022-12-24T12:29:44;15.20;;;3.60;;
18140;SDS011;9196;49.194;12.526;2022-12-24T12:32:16;7.30;;;2.33;;
18140;SDS011;9196;49.194;12.526;2022-12-24T12:34:53;9.17;;;2.73;;
18140;SDS011;9196;49.194;12.526;2022-12-24T12:37:25;9.97;;;2.47;;
18140;SDS011;9196;49.194;12.526;2022-12-24T12:39:57;11.53;;;2.60;;
18140;SDS011;9196;49.194;12.526;2022-12-24T12:42:26;9.50;;;3.20;;
18140;SDS011;9196;49.194;12.526;2022-12-24T12:45:02;15.80;;;2.87;;
18140;SDS011;9196;49.194;12.526;2022-12-24T12:47:53;13.53;;;3.13;;
18140;SDS011;9196;49.194;12.526;2022-12-24T12:50:38;23.03;;;4.27;;
18140;SDS011;9196;49.194;12.526;2022-12-24T12:53:15;10.50;;;2.93;;
18140;SDS011;9196;49.194;12.526;2022-12-24T12:55:56;9.67;;;3.70;;
18140;SDS011;9196;49.194;12.526;2022-12-24T12:58:31;8.73;;;3.10;;
18140;SDS011;9196;49.194;12.526;2022-12-24T13:01:00;10.30;;;3.50;;
18140;SDS011;9196;49.194;12.526;2022-12-24T13:03:50;6.80;;;2.80;;
18140;SDS011;9196;49.194;12.526;2022-12-24T13:06:45;11.70;;;3.20;;
18140;SDS011;9196;49.194;12.526;2022-12-24T13:09:41;16.03;;;4.53;;
18140;SDS011;9196;49.194;12.526;2022-12-24T13:12:27;12.43;;;3.67;;
18140;SDS011;9196;49.194;12.526;2022-12-24T13:15:10;8.87;;;2.53;;
18140;SDS011;9196;49.194;12.526;2022-12-24T13:18:06;5.47;;;2.20;;
18140;SDS011;9196;49.194;12.526;2022-12-24T13:20:46;10.30;;;3.67;;
18140;SDS011;9196;49.194;12.526;2022-12-24T13:23:14;6.50;;;2.40;;
18140;SDS011;9196;49.194;12.526;2022-12-24T13:25:45;6.73;;;2.67;;
18140;SDS011;9196;49.194;12.526;2022-12-24T13:28:31;6.80;;;2.40;;
18140;SDS011;9196;49.194;12.526;2022-12-24T13:33:54;9.67;;;3.13;;
18140;SDS011;9196;49.194;12.526;2022-12-24T13:36:23;13.20;;;4.40;;
18140;SDS011;9196;49.194;12.526;2022-12-24T13:38:50;13.80;;;4.70;;
18140;SDS011;9196;49.194;12.526;2022-12-24T13:44:22;15.30;;;3.70;;
18140;SDS011;9196;49.194;12.526;2022-12-24T13:46:58;17.57;;;4.60;;
18140;SDS011;9196;49.194;12.526;2022-12-24T13:49:45;12.53;;;3.87;;
18140;SDS011;9196;49.194;12.526;2022-12-24T13:52:16;10.00;;;3.63;;
18140;SDS011;9196;49.194;12.526;2022-12-24T13:54:47;8.73;;;3.00;;
18140;SDS011;9196;49.194;12.526;2022-12-24T13:57:31;10.43;;;3.73;;
18140;SDS011;9196;49.194;12.526;2022-12-24T14:00:05;10.90;;;3.87;;
18140;SDS011;9196;49.194;12.526;2022-12-24T14:02:49;13.83;;;4.50;;
18140;SDS011;9196;49.194;12.526;2022-12-24T14:05:38;14.10;;;3.53;;
18140;SDS011;9196;49.194;12.526;2022-12-24T14:08:27;11.10;;;4.07;;
18140;SDS011;9196;49.194;12.526;2022-12-24T14:10:59;6.30;;;2.77;;
18140;SDS011;9196;49.194;12.526;2022-12-24T14:13:53;12.33;;;5.20;;
18140;SDS011;9196;49.194;12.526;2022-12-24T14:16:44;12.70;;;3.73;;
18140;SDS011;9196;49.194;12.526;2022-12-24T14:19:15;9.80;;;3.73;;
18140;SDS011;9196;49.194;12.526;2022-12-24T14:21:48;9.97;;;3.60;;
18140;SDS011;9196;49.194;12.526;2022-12-24T14:24:23;8.57;;;3.70;;
18140;SDS011;9196;49.194;12.526;2022-12-24T14:26:53;22.03;;;8.43;;
18140;SDS011;9196;49.194;12.526;2022-12-24T14:29:26;15.53;;;5.13;;
18140;SDS011;9196;49.194;12.526;2022-12-24T14:31:58;11.50;;;5.10;;
18140;SDS011;9196;49.194;12.526;2022-12-24T14:34:28;8.73;;;4.47;;
18140;SDS011;9196;49.194;12.526;2022-12-24T14:36:55;14.10;;;5.67;;
18140;SDS011;9196;49.194;12.526;2022-12-24T14:39:27;15.63;;;7.20;;
18140;SDS011;9196;49.194;12.526;2022-12-24T14:42:00;11.10;;;6.07;;
18140;SDS011;9196;49.194;12.526;2022-12-24T14:44:39;13.00;;;5.40;;
18140;SDS011;9196;49.194;12.526;2022-12-24T14:50:14;9.13;;;4.00;;
18140;SDS011;9196;49.194;12.526;2022-12-24T14:52:54;9.73;;;3.60;;
18140;SDS011;9196;49.194;12.526;2022-12-24T14:55:26;7.87;;;4.50;;
18140;SDS011;9196;49.194;12.526;2022-12-24T14:58:15;15.07;;;3.90;;
18140;SDS011;9196;49.194;12.526;2022-12-24T15:00:44;15.63;;;4.87;;
18140;SDS011;9196;49.194;12.526;2022-12-24T15:03:13;10.70;;;4.33;;
18140;SDS011;9196;49.194;12.526;2022-12-24T15:05:41;14.77;;;3.80;;
18140;SDS011;9196;49.194;12.526;2022-12-24T15:08:09;13.20;;;5.07;;
18140;SDS011;9196;49.194;12.526;2022-12-24T15:10:41;17.70;;;4.70;;
18140;SDS011;9196;49.194;12.526;2022-12-24T15:13:13;14.83;;;5.43;;
18140;SDS011;9196;49.194;12.526;2022-12-24T15:15:48;8.67;;;5.23;;
18140;SDS011;9196;49.194;12.526;2022-12-24T15:18:19;18.40;;;5.03;;